createdAt,value
2022-10-09T00:02:25.862Z,14.60
2022-10-09T00:04:55.687Z,17.50
2022-10-09T00:07:25.602Z,16.92
2022-10-09T00:09:55.481Z,13.27
2022-10-09T00:12:25.156Z,13.60
2022-10-09T00:14:54.845Z,14.57
2022-10-09T00:17:27.761Z,12.48
2022-10-09T00:19:57.691Z,12.88
2022-10-09T00:22:27.513Z,7.70
2022-10-09T00:24:57.223Z,10.45
2022-10-09T00:27:27.409Z,3.83
2022-10-09T00:29:57.337Z,6.60
2022-10-09T00:32:27.825Z,5.47
2022-10-09T00:34:57.636Z,4.10
2022-10-09T00:37:27.556Z,3.42
2022-10-09T00:39:57.412Z,4.25
2022-10-09T00:42:27.855Z,4.35
2022-10-09T00:45:01.856Z,3.72
2022-10-09T00:47:45.485Z,4.57
2022-10-09T00:50:24.240Z,7.18
2022-10-09T00:52:55.821Z,5.22
2022-10-09T00:55:25.627Z,5.43
2022-10-09T00:57:56.231Z,4.35
2022-10-09T01:00:26.157Z,5.43
2022-10-09T01:02:56.593Z,6.00
2022-10-09T01:05:33.414Z,6.30
2022-10-09T01:08:11.302Z,7.55
2022-10-09T01:10:40.980Z,11.00
2022-10-09T01:13:29.767Z,6.80
2022-10-09T01:16:07.314Z,5.72
2022-10-09T01:18:49.373Z,4.82
2022-10-09T01:21:29.198Z,5.72
2022-10-09T01:23:59.115Z,5.32
2022-10-09T01:26:29.190Z,6.15
2022-10-09T01:28:59.925Z,6.30
2022-10-09T01:31:31.562Z,5.25
2022-10-09T01:34:01.620Z,5.00
2022-10-09T01:36:32.623Z,5.82
2022-10-09T01:39:03.011Z,5.32
2022-10-09T01:41:32.897Z,7.63
2022-10-09T01:44:02.835Z,5.20
2022-10-09T01:46:33.605Z,4.00
2022-10-09T01:49:06.585Z,7.38
2022-10-09T01:51:38.448Z,4.75
2022-10-09T01:54:08.626Z,7.30
2022-10-09T01:56:38.240Z,8.00
2022-10-09T01:59:15.668Z,8.35
2022-10-09T02:01:46.181Z,4.82
2022-10-09T02:04:16.691Z,5.43
2022-10-09T02:06:46.594Z,3.92
2022-10-09T02:09:17.267Z,5.93
2022-10-09T02:11:49.417Z,9.57
2022-10-09T02:14:19.886Z,8.23
2022-10-09T02:16:50.079Z,5.45
2022-10-09T02:19:20.460Z,7.53
2022-10-09T02:21:54.404Z,5.05
2022-10-09T02:24:25.033Z,8.73
2022-10-09T02:26:59.183Z,7.20
2022-10-09T02:29:29.046Z,7.32
2022-10-09T02:32:00.636Z,6.03
2022-10-09T02:34:30.429Z,6.22
2022-10-09T02:37:00.623Z,5.63
2022-10-09T02:39:30.299Z,5.60
2022-10-09T02:41:59.973Z,5.70
2022-10-09T02:44:29.763Z,4.97
2022-10-09T02:46:59.590Z,7.47
2022-10-09T02:49:30.251Z,5.93
2022-10-09T02:51:59.875Z,4.93
2022-10-09T02:54:33.294Z,5.60
2022-10-09T02:57:02.979Z,6.53
2022-10-09T02:59:33.896Z,6.25
2022-10-09T03:02:04.134Z,6.32
2022-10-09T03:04:34.302Z,4.82
2022-10-09T03:07:04.774Z,4.35
2022-10-09T03:09:34.562Z,6.93
2022-10-09T03:12:04.373Z,6.07
2022-10-09T03:14:34.331Z,8.50
2022-10-09T03:17:03.923Z,3.30
2022-10-09T03:19:33.696Z,4.47
2022-10-09T03:22:03.753Z,5.40
2022-10-09T03:24:33.413Z,6.55
2022-10-09T03:27:03.249Z,6.68
2022-10-09T03:29:33.149Z,3.85
2022-10-09T03:32:03.023Z,4.93
2022-10-09T03:34:33.042Z,8.82
2022-10-09T03:37:03.152Z,5.20
2022-10-09T03:39:33.865Z,5.10
2022-10-09T03:42:03.780Z,5.53
2022-10-09T03:44:33.805Z,6.25
2022-10-09T03:47:06.483Z,10.27
2022-10-09T03:49:36.296Z,3.78
2022-10-09T03:52:06.414Z,4.38
2022-10-09T03:54:36.306Z,6.43
2022-10-09T03:57:06.090Z,7.38
2022-10-09T03:59:35.949Z,7.35
2022-10-09T04:02:06.434Z,4.65
2022-10-09T04:04:39.969Z,7.22
2022-10-09T04:07:12.343Z,8.57
2022-10-09T04:09:42.005Z,7.00
2022-10-09T04:12:12.605Z,7.88
2022-10-09T04:14:42.563Z,4.75
2022-10-09T04:17:12.459Z,4.40
2022-10-09T04:19:42.617Z,6.55
2022-10-09T04:22:12.375Z,4.20
2022-10-09T04:24:42.009Z,5.72
2022-10-09T04:27:12.082Z,5.28
2022-10-09T04:29:42.155Z,4.95
2022-10-09T04:32:12.779Z,4.38
2022-10-09T04:34:42.613Z,4.25
2022-10-09T04:37:12.604Z,5.15
2022-10-09T04:39:42.519Z,5.68
2022-10-09T04:42:12.571Z,6.35
2022-10-09T04:44:42.357Z,5.13
2022-10-09T04:47:12.230Z,4.47
2022-10-09T04:49:42.335Z,4.18
2022-10-09T04:52:12.101Z,5.72
2022-10-09T04:54:41.962Z,7.65
2022-10-09T04:57:11.731Z,11.10
2022-10-09T04:59:41.573Z,5.95
2022-10-09T05:02:11.345Z,3.83
2022-10-09T05:04:41.113Z,7.93
2022-10-09T05:07:10.913Z,8.02
2022-10-09T05:09:40.794Z,5.10
2022-10-09T05:12:10.829Z,7.40
2022-10-09T05:14:40.826Z,5.60
2022-10-09T05:17:14.215Z,5.32
2022-10-09T05:19:44.867Z,6.32
2022-10-09T05:22:14.744Z,6.90
2022-10-09T05:24:44.578Z,4.28
2022-10-09T05:27:14.533Z,5.00
2022-10-09T05:29:44.277Z,6.38
2022-10-09T05:32:16.215Z,4.35
2022-10-09T05:34:45.987Z,3.58
2022-10-09T05:37:16.015Z,3.97
2022-10-09T05:39:46.896Z,4.45
2022-10-09T05:42:16.705Z,5.07
2022-10-09T05:44:46.537Z,5.32
2022-10-09T05:47:19.659Z,6.35
2022-10-09T05:49:49.335Z,5.15
2022-10-09T05:52:19.294Z,5.40
2022-10-09T05:54:49.388Z,6.55
2022-10-09T05:57:19.286Z,5.05
2022-10-09T05:59:49.434Z,5.63
2022-10-09T06:02:19.618Z,5.07
2022-10-09T06:04:49.453Z,3.35
2022-10-09T06:07:19.320Z,6.57
2022-10-09T06:09:49.508Z,5.43
2022-10-09T06:12:19.605Z,6.60
2022-10-09T06:14:49.389Z,7.22
2022-10-09T06:17:19.433Z,5.95
2022-10-09T06:19:51.878Z,4.95
2022-10-09T06:22:22.131Z,7.30
2022-10-09T06:24:51.934Z,7.85
2022-10-09T06:27:21.639Z,6.93
2022-10-09T06:29:51.787Z,6.95
2022-10-09T06:32:22.744Z,5.13
2022-10-09T06:34:53.594Z,6.05
2022-10-09T06:37:23.826Z,10.75
2022-10-09T06:39:53.872Z,5.30
2022-10-09T06:42:23.934Z,4.57
2022-10-09T06:44:57.685Z,7.30
2022-10-09T06:47:28.533Z,10.68
2022-10-09T06:49:58.958Z,6.47
2022-10-09T06:52:28.766Z,5.97
2022-10-09T06:54:58.484Z,3.72
2022-10-09T06:57:28.621Z,7.07
2022-10-09T06:59:58.875Z,5.97
2022-10-09T07:02:29.215Z,10.43
2022-10-09T07:04:59.406Z,7.28
2022-10-09T07:07:29.657Z,12.20
2022-10-09T07:09:59.907Z,7.53
2022-10-09T07:12:30.213Z,9.00
2022-10-09T07:15:00.793Z,9.48
2022-10-09T07:17:31.502Z,8.70
2022-10-09T07:20:01.860Z,6.57
2022-10-09T07:22:32.614Z,5.10
2022-10-09T07:25:03.111Z,8.05
2022-10-09T07:27:33.811Z,9.23
2022-10-09T07:30:04.575Z,11.40
2022-10-09T07:32:35.836Z,5.72
2022-10-09T07:35:06.753Z,10.23
2022-10-09T07:37:37.467Z,8.43
2022-10-09T07:40:07.737Z,6.93
2022-10-09T07:42:40.157Z,6.90
2022-10-09T07:45:10.538Z,8.73
2022-10-09T07:47:40.574Z,9.20
2022-10-09T07:50:10.711Z,7.32
2022-10-09T07:52:40.762Z,7.78
2022-10-09T07:55:10.881Z,9.35
2022-10-09T07:57:41.183Z,9.20
2022-10-09T08:00:11.471Z,12.23
2022-10-09T08:02:41.674Z,7.63
2022-10-09T08:05:11.867Z,11.63
2022-10-09T08:07:41.836Z,8.57
2022-10-09T08:10:11.949Z,10.23
2022-10-09T08:12:41.898Z,12.50
2022-10-09T08:15:12.006Z,10.68
2022-10-09T08:17:42.049Z,36.20
2022-10-09T08:20:11.962Z,34.30
2022-10-09T08:22:41.794Z,16.10
2022-10-09T08:25:11.920Z,15.40
2022-10-09T08:27:41.607Z,12.90
2022-10-09T08:30:11.736Z,16.73
2022-10-09T08:32:42.583Z,11.55
2022-10-09T08:35:12.877Z,11.32
2022-10-09T08:37:42.839Z,8.52
2022-10-09T08:40:13.892Z,14.05
2022-10-09T08:42:47.579Z,25.02
2022-10-09T08:45:18.327Z,27.85
2022-10-09T08:47:48.697Z,20.20
2022-10-09T08:50:24.429Z,15.98
2022-10-09T08:52:56.992Z,17.38
2022-10-09T08:55:27.911Z,20.77
2022-10-09T08:57:58.462Z,20.63
2022-10-09T09:00:30.677Z,19.85
2022-10-09T09:03:13.159Z,13.27
2022-10-09T09:05:45.578Z,16.98
2022-10-09T09:08:19.901Z,20.02
2022-10-09T09:11:12.240Z,16.63
2022-10-09T09:14:00.540Z,14.57
2022-10-09T09:16:42.484Z,18.08
2022-10-09T09:19:24.670Z,16.65
2022-10-09T09:21:54.591Z,22.77
2022-10-09T09:24:34.703Z,15.80
2022-10-09T09:27:05.359Z,19.52
2022-10-09T09:29:35.316Z,18.20
2022-10-09T09:32:05.374Z,12.93
2022-10-09T09:34:38.433Z,12.32
2022-10-09T09:37:08.314Z,17.20
2022-10-09T09:40:34.414Z,10.35
2022-10-09T09:42:28.196Z,12.68
2022-10-09T09:45:07.667Z,12.57
2022-10-09T09:47:37.493Z,18.63
2022-10-09T09:50:15.209Z,15.20
2022-10-09T09:52:53.509Z,17.02
2022-10-09T09:55:30.811Z,12.05
2022-10-09T09:58:04.679Z,13.05
2022-10-09T10:00:34.407Z,13.60
2022-10-09T10:03:23.046Z,13.48
2022-10-09T10:05:53.362Z,13.07
2022-10-09T10:08:30.309Z,13.50
2022-10-09T10:11:01.548Z,15.20
2022-10-09T10:13:41.139Z,13.95
2022-10-09T10:16:13.734Z,18.25
2022-10-09T10:18:44.244Z,16.05
2022-10-09T10:21:18.062Z,16.40
2022-10-09T10:24:08.041Z,15.93
2022-10-09T10:26:44.658Z,19.25
2022-10-09T10:29:28.034Z,21.50
2022-10-09T10:32:04.505Z,18.08
2022-10-09T10:34:46.616Z,23.95
2022-10-09T10:37:16.525Z,17.92
2022-10-09T10:39:49.702Z,25.17
2022-10-09T10:42:25.893Z,22.50
2022-10-09T10:45:15.894Z,26.77
2022-10-09T10:47:48.607Z,23.10
2022-10-09T10:50:18.925Z,19.27
2022-10-09T10:53:15.885Z,24.23
2022-10-09T10:55:50.025Z,27.27
2022-10-09T10:58:25.991Z,23.88
2022-10-09T11:01:04.801Z,31.58
2022-10-09T11:03:53.086Z,23.05
2022-10-09T11:06:26.821Z,18.60
2022-10-09T11:08:56.543Z,19.02
2022-10-09T11:11:44.812Z,20.80
2022-10-09T11:14:19.251Z,20.42
2022-10-09T11:16:52.963Z,21.90
2022-10-09T11:19:25.870Z,18.48
2022-10-09T11:22:44.942Z,18.25
2022-10-09T11:25:14.762Z,17.33
2022-10-09T11:27:55.218Z,19.52
2022-10-09T11:30:27.972Z,15.88
2022-10-09T11:33:03.174Z,16.50
2022-10-09T11:35:59.077Z,17.38
2022-10-09T11:38:31.211Z,18.27
2022-10-09T11:41:05.113Z,22.17
2022-10-09T11:43:46.130Z,20.65
2022-10-09T11:46:21.950Z,19.48
2022-10-09T11:48:55.813Z,26.42
2022-10-09T11:51:41.089Z,26.40
2022-10-09T11:54:16.221Z,31.10
2022-10-09T11:56:59.353Z,36.80
2022-10-09T11:59:33.125Z,42.55
2022-10-09T12:02:04.020Z,28.48
2022-10-09T12:07:30.890Z,29.67
2022-10-09T12:10:02.712Z,29.08
2022-10-09T12:12:32.674Z,28.38
2022-10-09T12:15:12.040Z,25.83
2022-10-09T12:17:50.047Z,23.88
2022-10-09T12:20:23.931Z,27.90
2022-10-09T12:23:27.114Z,21.90
2022-10-09T12:25:48.840Z,20.73
2022-10-09T12:28:29.519Z,18.85
2022-10-09T12:31:00.553Z,24.00
2022-10-09T12:33:41.436Z,19.58
2022-10-09T12:36:18.370Z,18.23
2022-10-09T12:38:48.429Z,16.92
2022-10-09T12:41:44.619Z,19.73
2022-10-09T12:44:43.832Z,18.08
2022-10-09T12:47:19.152Z,22.77
2022-10-09T12:50:01.866Z,17.40
2022-10-09T12:52:31.762Z,17.33
2022-10-09T12:55:02.047Z,21.27
2022-10-09T12:57:35.043Z,13.30
2022-10-09T13:00:04.871Z,12.82
2022-10-09T13:02:34.894Z,15.45
2022-10-09T13:05:04.699Z,15.52
2022-10-09T13:07:34.834Z,18.98
2022-10-09T13:10:06.581Z,12.02
2022-10-09T13:12:36.781Z,14.25
2022-10-09T13:15:10.865Z,17.92
2022-10-09T13:17:41.905Z,16.17
2022-10-09T13:20:17.063Z,12.38
2022-10-09T13:23:16.065Z,12.82
2022-10-09T13:28:16.491Z,14.57
2022-10-09T13:30:46.614Z,18.92
2022-10-09T13:33:17.256Z,17.17
2022-10-09T13:35:47.677Z,13.20
2022-10-09T13:38:19.125Z,20.88
2022-10-09T13:40:49.559Z,12.70
2022-10-09T13:43:21.870Z,16.75
2022-10-09T13:45:54.730Z,12.60
2022-10-09T13:48:24.715Z,12.88
2022-10-09T13:50:55.105Z,14.02
2022-10-09T13:53:25.408Z,12.77
2022-10-09T13:56:00.054Z,14.50
2022-10-09T13:58:31.316Z,15.32
2022-10-09T14:01:01.553Z,12.45
2022-10-09T14:03:31.802Z,15.68
2022-10-09T14:06:02.455Z,16.80
2022-10-09T14:08:32.848Z,16.15
2022-10-09T14:11:03.392Z,15.15
2022-10-09T14:13:35.000Z,11.90
2022-10-09T14:16:08.667Z,14.38
2022-10-09T14:18:38.737Z,16.92
2022-10-09T14:21:15.706Z,17.88
2022-10-09T14:23:46.104Z,17.92
2022-10-09T14:26:16.234Z,17.25
2022-10-09T14:28:46.718Z,10.60
2022-10-09T14:31:19.151Z,14.35
2022-10-09T14:33:50.637Z,11.30
2022-10-09T14:36:21.896Z,11.82
2022-10-09T14:38:51.836Z,16.27
2022-10-09T14:41:21.918Z,14.88
2022-10-09T14:43:56.914Z,12.95
2022-10-09T14:46:27.251Z,13.70
2022-10-09T14:48:57.784Z,14.68
2022-10-09T14:51:28.128Z,14.27
2022-10-09T14:54:01.333Z,12.00
2022-10-09T14:56:31.783Z,19.90
2022-10-09T14:59:04.943Z,13.55
2022-10-09T15:01:34.957Z,13.60
2022-10-09T15:04:05.135Z,16.00
2022-10-09T15:06:35.807Z,21.33
2022-10-09T15:09:07.421Z,12.50
2022-10-09T15:11:37.414Z,13.27
2022-10-09T15:14:07.339Z,19.48
2022-10-09T15:16:37.320Z,11.05
2022-10-09T15:19:07.411Z,14.98
2022-10-09T15:21:37.612Z,10.77
2022-10-09T15:24:07.573Z,14.70
2022-10-09T15:26:38.223Z,10.32
2022-10-09T15:29:08.691Z,27.65
2022-10-09T15:31:42.414Z,11.00
2022-10-09T15:34:13.315Z,12.00
2022-10-09T15:36:45.452Z,12.00
2022-10-09T15:39:18.216Z,29.33
2022-10-09T15:41:48.543Z,31.48
2022-10-09T15:44:22.214Z,27.75
2022-10-09T15:46:52.548Z,25.30
2022-10-09T15:49:22.496Z,17.02
2022-10-09T15:51:52.428Z,21.60
2022-10-09T15:54:22.570Z,15.20
2022-10-09T15:56:52.553Z,22.92
2022-10-09T15:59:22.485Z,19.98
2022-10-09T16:01:52.892Z,21.90
2022-10-09T16:04:22.694Z,17.90
2022-10-09T16:06:52.715Z,16.92
2022-10-09T16:09:22.502Z,22.98
2022-10-09T16:11:52.461Z,24.88
2022-10-09T16:14:22.473Z,18.00
2022-10-09T16:16:53.056Z,26.10
2022-10-09T16:19:22.739Z,22.50
2022-10-09T16:21:52.675Z,12.77
2022-10-09T16:24:22.633Z,17.90
2022-10-09T16:26:52.610Z,13.82
2022-10-09T16:29:22.316Z,12.40
2022-10-09T16:31:52.409Z,15.57
2022-10-09T16:34:22.423Z,11.73
2022-10-09T16:36:52.374Z,14.38
2022-10-09T16:39:24.973Z,14.48
2022-10-09T16:41:54.885Z,11.60
2022-10-09T16:44:24.610Z,17.70
2022-10-09T16:46:55.345Z,15.88
2022-10-09T16:49:25.329Z,12.52
2022-10-09T16:51:55.196Z,17.50
2022-10-09T16:54:25.146Z,15.35
2022-10-09T16:56:55.255Z,17.58
2022-10-09T16:59:25.060Z,18.63
2022-10-09T17:01:55.086Z,14.75
2022-10-09T17:04:24.901Z,14.18
2022-10-09T17:06:55.002Z,14.25
2022-10-09T17:09:24.836Z,18.85
2022-10-09T17:11:54.788Z,17.02
2022-10-09T17:14:24.646Z,14.90
2022-10-09T17:16:54.353Z,9.73
2022-10-09T17:19:24.210Z,9.73
2022-10-09T17:21:55.024Z,7.38
2022-10-09T17:24:25.062Z,9.55
2022-10-09T17:26:55.041Z,5.88
2022-10-09T17:29:25.039Z,14.85
2022-10-09T17:31:55.188Z,16.02
2022-10-09T17:34:24.877Z,13.73
2022-10-09T17:36:55.067Z,16.77
2022-10-09T17:39:25.043Z,12.32
2022-10-09T17:41:54.972Z,11.73
2022-10-09T17:44:24.852Z,10.68
2022-10-09T17:46:54.896Z,11.98
2022-10-09T17:49:24.676Z,10.75
2022-10-09T17:51:56.068Z,15.25
2022-10-09T17:54:25.795Z,12.73
2022-10-09T17:56:55.866Z,13.30
2022-10-09T17:59:25.981Z,16.27
2022-10-09T18:01:56.229Z,15.00
2022-10-09T18:04:25.844Z,18.38
2022-10-09T18:06:55.615Z,13.20
2022-10-09T18:09:25.467Z,13.60
2022-10-09T18:11:55.400Z,23.30
2022-10-09T18:14:25.292Z,12.90
2022-10-09T18:16:55.186Z,15.73
2022-10-09T18:19:24.966Z,10.98
2022-10-09T18:21:54.829Z,12.13
2022-10-09T18:24:24.651Z,19.90
2022-10-09T18:26:54.755Z,15.88
2022-10-09T18:29:24.709Z,12.13
2022-10-09T18:31:57.258Z,16.05
2022-10-09T18:34:27.118Z,13.05
2022-10-09T18:36:57.084Z,14.13
2022-10-09T18:39:26.883Z,14.13
2022-10-09T18:41:59.856Z,11.60
2022-10-09T18:44:29.748Z,10.57
2022-10-09T18:47:00.380Z,22.67
2022-10-09T18:49:30.799Z,14.10
2022-10-09T18:52:00.585Z,14.18
2022-10-09T18:54:30.379Z,14.73
2022-10-09T18:57:00.190Z,12.93
2022-10-09T18:59:30.026Z,15.30
2022-10-09T19:01:59.826Z,13.25
2022-10-09T19:04:29.722Z,12.55
2022-10-09T19:06:59.591Z,14.00
2022-10-09T19:09:29.533Z,8.38
2022-10-09T19:11:59.430Z,10.25
2022-10-09T19:14:29.465Z,13.35
2022-10-09T19:16:59.217Z,14.20
2022-10-09T19:19:30.761Z,12.63
2022-10-09T19:22:00.725Z,17.02
2022-10-09T19:24:34.106Z,12.93
2022-10-09T19:27:04.506Z,12.40
2022-10-09T19:29:34.698Z,14.77
2022-10-09T19:32:05.694Z,14.95
2022-10-09T19:34:35.344Z,11.18
2022-10-09T19:37:06.687Z,11.07
2022-10-09T19:39:36.534Z,13.57
2022-10-09T19:42:06.389Z,14.52
2022-10-09T19:44:36.414Z,8.38
2022-10-09T19:47:06.468Z,10.90
2022-10-09T19:49:36.320Z,13.73
2022-10-09T19:52:06.168Z,10.70
2022-10-09T19:54:38.927Z,12.25
2022-10-09T19:57:08.677Z,9.07
2022-10-09T19:59:38.561Z,15.57
2022-10-09T20:02:09.799Z,15.82
2022-10-09T20:04:39.527Z,9.77
2022-10-09T20:07:12.470Z,12.50
2022-10-09T20:09:42.735Z,10.55
2022-10-09T20:12:12.867Z,13.43
2022-10-09T20:14:42.714Z,15.13
2022-10-09T20:17:12.428Z,9.43
2022-10-09T20:19:45.500Z,15.15
2022-10-09T20:22:15.776Z,13.52
2022-10-09T20:24:45.500Z,15.38
2022-10-09T20:27:15.150Z,12.32
2022-10-09T20:29:45.030Z,9.13
2022-10-09T20:32:14.824Z,16.67
2022-10-09T20:34:45.788Z,15.45
2022-10-09T20:37:15.644Z,15.55
2022-10-09T20:39:45.355Z,10.40
2022-10-09T20:42:15.120Z,13.07
2022-10-09T20:44:45.220Z,11.68
2022-10-09T20:47:15.194Z,12.55
2022-10-09T20:49:45.148Z,15.00
2022-10-09T20:52:14.845Z,12.65
2022-10-09T20:54:44.542Z,15.73
2022-10-09T20:57:14.279Z,9.73
2022-10-09T20:59:44.138Z,15.77
2022-10-09T21:02:17.044Z,15.75
2022-10-09T21:04:48.102Z,16.58
2022-10-09T21:07:18.021Z,13.07
2022-10-09T21:09:47.990Z,12.63
2022-10-09T21:12:17.919Z,9.57
2022-10-09T21:14:47.898Z,11.48
2022-10-09T21:17:17.551Z,12.52
2022-10-09T21:19:47.230Z,17.23
2022-10-09T21:22:17.006Z,13.85
2022-10-09T21:24:46.810Z,9.32
2022-10-09T21:27:16.888Z,13.52
2022-10-09T21:29:46.608Z,11.32
2022-10-09T21:32:16.981Z,12.20
2022-10-09T21:34:47.423Z,12.00
2022-10-09T21:37:21.408Z,11.82
2022-10-09T21:39:51.988Z,11.32
2022-10-09T21:42:21.801Z,13.25
2022-10-09T21:44:51.669Z,19.08
2022-10-09T21:47:21.443Z,11.95
2022-10-09T21:49:51.138Z,16.27
2022-10-09T21:52:20.854Z,12.43
2022-10-09T21:54:50.865Z,14.02
2022-10-09T21:57:20.924Z,14.05
2022-10-09T21:59:50.849Z,15.43
2022-10-09T22:02:20.918Z,19.33
2022-10-09T22:04:51.052Z,13.55
2022-10-09T22:07:20.987Z,21.83
2022-10-09T22:09:51.083Z,12.65
2022-10-09T22:12:21.020Z,11.32
2022-10-09T22:14:50.911Z,9.73
2022-10-09T22:17:20.866Z,12.45
2022-10-09T22:19:50.671Z,14.63
2022-10-09T22:22:20.675Z,8.50
2022-10-09T22:24:50.548Z,13.20
2022-10-09T22:27:20.377Z,9.40
2022-10-09T22:29:50.219Z,10.10
2022-10-09T22:32:20.266Z,13.98
2022-10-09T22:34:53.738Z,7.93
2022-10-09T22:37:23.472Z,15.48
2022-10-09T22:39:53.485Z,12.73
2022-10-09T22:42:23.245Z,17.50
2022-10-09T22:44:52.964Z,17.23
2022-10-09T22:47:22.638Z,11.60
2022-10-09T22:49:52.922Z,15.65
2022-10-09T22:52:22.615Z,15.82
2022-10-09T22:54:52.307Z,23.10
2022-10-09T22:57:22.174Z,15.27
2022-10-09T22:59:51.961Z,16.60
2022-10-09T23:02:21.871Z,24.77
2022-10-09T23:04:51.935Z,13.95
2022-10-09T23:07:21.906Z,21.05
2022-10-09T23:09:51.991Z,18.60
2022-10-09T23:12:21.658Z,21.55
2022-10-09T23:14:51.716Z,19.58
2022-10-09T23:17:21.655Z,17.42
2022-10-09T23:19:53.918Z,14.13
2022-10-09T23:22:23.596Z,19.00
2022-10-09T23:24:53.576Z,16.08
2022-10-09T23:27:23.463Z,12.65
2022-10-09T23:29:53.671Z,14.85
2022-10-09T23:32:23.797Z,16.75
2022-10-09T23:34:53.884Z,15.70
2022-10-09T23:37:23.659Z,11.68
2022-10-09T23:39:53.549Z,22.50
2022-10-09T23:42:23.365Z,16.60
2022-10-09T23:44:53.962Z,16.63
2022-10-09T23:47:26.465Z,14.25
2022-10-09T23:49:56.421Z,16.08
2022-10-09T23:52:26.067Z,20.42
2022-10-09T23:54:56.023Z,13.27
2022-10-09T23:57:25.785Z,12.18
2022-10-09T23:59:55.798Z,9.82
